Time;durP1;ratioP1;P1;durP2;ratioP2;P2;SDS_P1;SDS_P2;PMS_P1;PMS_P2;Temp;Humidity;BMP_temperature;BMP_pressure;BME280_temperature;BME280_humidity;BME280_pressure;Samples;Min_cycle;Max_cycle;Signal;HPM_P1;HPM_P2
2023/09/16 00:01:04;;;;;;;12.93;8.15;;;;;;;;;;5035917;28;20026;-32
2023/09/16 00:03:32;;;;;;;12.93;8.17;;;;;;;;;;5035720;28;20053;-30
2023/09/16 00:05:57;;;;;;;14.48;8.30;;;;;;;;;;5035957;28;20017;-30
2023/09/16 00:08:22;;;;;;;12.75;7.88;;;;;;;;;;5035605;28;20022;-30
2023/09/16 00:10:47;;;;;;;15.05;8.20;;;;;;;;;;5035841;28;20014;-31
2023/09/16 00:13:13;;;;;;;12.02;8.13;;;;;;;;;;5035530;28;20540;-31
2023/09/16 00:15:38;;;;;;;13.07;8.57;;;;;;;;;;5036075;28;20063;-31
2023/09/16 00:18:03;;;;;;;13.97;8.30;;;;;;;;;;5035364;28;20057;-30
2023/09/16 00:20:28;;;;;;;13.23;7.85;;;;;;;;;;5035840;28;20064;-31
2023/09/16 00:22:53;;;;;;;13.88;7.70;;;;;;;;;;5034098;28;20100;-30
2023/09/16 00:25:19;;;;;;;14.50;7.75;;;;;;;;;;5035624;28;20018;-31
2023/09/16 00:27:44;;;;;;;11.20;7.70;;;;;;;;;;5035530;28;20052;-31
2023/09/16 00:30:09;;;;;;;13.37;7.70;;;;;;;;;;5035586;28;20195;-31
2023/09/16 00:32:35;;;;;;;15.18;8.60;;;;;;;;;;5033937;28;20406;-31
2023/09/16 00:35:01;;;;;;;12.77;8.18;;;;;;;;;;5035450;28;20108;-32
2023/09/16 00:37:26;;;;;;;14.15;8.43;;;;;;;;;;5035043;28;20365;-32
2023/09/16 00:39:51;;;;;;;12.55;8.10;;;;;;;;;;5035255;28;20029;-30
2023/09/16 00:42:17;;;;;;;14.20;8.17;;;;;;;;;;5034846;28;20093;-31
2023/09/16 00:44:42;;;;;;;10.80;7.53;;;;;;;;;;5035308;28;20010;-31
2023/09/16 00:47:07;;;;;;;15.98;8.45;;;;;;;;;;5034834;28;20025;-31
2023/09/16 00:49:33;;;;;;;12.80;8.13;;;;;;;;;;5035494;28;20025;-32
2023/09/16 00:51:59;;;;;;;11.10;7.60;;;;;;;;;;5035078;28;20306;-30
2023/09/16 00:54:24;;;;;;;14.95;7.88;;;;;;;;;;5034752;28;20052;-30
2023/09/16 00:56:49;;;;;;;12.20;8.48;;;;;;;;;;5033477;28;20022;-31
2023/09/16 00:59:15;;;;;;;16.23;8.15;;;;;;;;;;5034650;28;20021;-32
2023/09/16 01:01:41;;;;;;;13.10;7.72;;;;;;;;;;5034173;28;20024;-30
2023/09/16 01:04:08;;;;;;;14.02;8.05;;;;;;;;;;5034516;28;20041;-31
2023/09/16 01:06:33;;;;;;;14.38;8.07;;;;;;;;;;5034727;28;20140;-31
2023/09/16 01:08:58;;;;;;;13.87;7.67;;;;;;;;;;5034473;28;20100;-32
2023/09/16 01:11:24;;;;;;;17.13;8.50;;;;;;;;;;5034364;28;20024;-30
2023/09/16 01:13:50;;;;;;;12.43;7.55;;;;;;;;;;5034653;28;20096;-31
2023/09/16 01:16:34;;;;;;;12.68;7.88;;;;;;;;;;5034615;28;20018;-31
2023/09/16 01:19:05;;;;;;;14.98;8.18;;;;;;;;;;5034525;28;20037;-31
2023/09/16 01:21:30;;;;;;;11.63;7.70;;;;;;;;;;5034229;28;20463;-32
2023/09/16 01:24:15;;;;;;;16.80;8.52;;;;;;;;;;5034236;28;20022;-31
2023/09/16 01:26:41;;;;;;;12.63;7.85;;;;;;;;;;5034437;28;20022;-30
2023/09/16 01:29:06;;;;;;;13.97;8.40;;;;;;;;;;5034148;28;20147;-31
2023/09/16 01:31:31;;;;;;;13.05;7.88;;;;;;;;;;5034044;28;20321;-32
2023/09/16 01:33:58;;;;;;;14.35;8.45;;;;;;;;;;5033991;28;20021;-32
2023/09/16 01:36:25;;;;;;;12.32;8.35;;;;;;;;;;5033047;28;20032;-31
2023/09/16 01:38:55;;;;;;;15.10;8.35;;;;;;;;;;5034473;28;20018;-30
2023/09/16 01:41:20;;;;;;;13.30;8.63;;;;;;;;;;5034383;28;20029;-31
2023/09/16 01:43:46;;;;;;;12.40;8.35;;;;;;;;;;5034109;28;20018;-31
2023/09/16 01:46:12;;;;;;;12.13;8.63;;;;;;;;;;5033808;28;20025;-31
2023/09/16 01:48:37;;;;;;;14.20;8.50;;;;;;;;;;5033694;28;20516;-31
2023/09/16 01:51:02;;;;;;;13.13;8.40;;;;;;;;;;5033722;28;20047;-31
2023/09/16 01:53:27;;;;;;;19.70;8.57;;;;;;;;;;5033786;28;20268;-31
2023/09/16 01:55:52;;;;;;;12.87;8.37;;;;;;;;;;5033835;28;20808;-31
2023/09/16 01:58:18;;;;;;;15.13;8.63;;;;;;;;;;5033587;28;20286;-31
2023/09/16 02:00:43;;;;;;;13.80;8.33;;;;;;;;;;5034058;28;20030;-30
2023/09/16 02:03:08;;;;;;;14.10;8.77;;;;;;;;;;5033467;28;20636;-29
2023/09/16 02:05:33;;;;;;;14.83;8.67;;;;;;;;;;5033800;28;20017;-31
2023/09/16 02:07:58;;;;;;;14.90;9.02;;;;;;;;;;5032189;28;20284;-31
2023/09/16 02:10:25;;;;;;;14.00;8.40;;;;;;;;;;5033535;28;20376;-30
2023/09/16 02:12:50;;;;;;;17.52;8.45;;;;;;;;;;5033010;28;20650;-31
2023/09/16 02:15:15;;;;;;;13.40;8.70;;;;;;;;;;5033507;28;20083;-31
2023/09/16 02:17:41;;;;;;;13.43;8.60;;;;;;;;;;5033998;28;20033;-31
2023/09/16 02:20:12;;;;;;;15.63;8.40;;;;;;;;;;5033784;28;20310;-31
2023/09/16 02:22:38;;;;;;;14.75;8.93;;;;;;;;;;5032078;28;20491;-31
2023/09/16 02:25:03;;;;;;;12.07;8.52;;;;;;;;;;5034207;28;20025;-31
2023/09/16 02:27:29;;;;;;;12.02;8.02;;;;;;;;;;5033632;28;20079;-31
2023/09/16 02:29:54;;;;;;;15.10;8.45;;;;;;;;;;5033518;28;20021;-31
2023/09/16 02:32:19;;;;;;;12.13;8.18;;;;;;;;;;5033539;28;20017;-31
2023/09/16 02:34:44;;;;;;;16.10;8.43;;;;;;;;;;5033240;28;20010;-31
2023/09/16 02:37:10;;;;;;;15.93;8.33;;;;;;;;;;5033147;28;20268;-31
2023/09/16 02:39:35;;;;;;;13.67;8.37;;;;;;;;;;5033742;28;20660;-30
2023/09/16 02:42:00;;;;;;;11.93;8.17;;;;;;;;;;5033166;28;20338;-31
2023/09/16 02:44:25;;;;;;;14.07;8.40;;;;;;;;;;5033767;28;20014;-31
2023/09/16 02:46:52;;;;;;;13.65;8.63;;;;;;;;;;5033323;28;20184;-32
2023/09/16 02:49:17;;;;;;;14.13;8.40;;;;;;;;;;5033706;28;20022;-30
2023/09/16 02:51:42;;;;;;;15.60;9.17;;;;;;;;;;5031919;28;20022;-31
2023/09/16 02:54:08;;;;;;;13.55;8.27;;;;;;;;;;5033179;28;20604;-32
2023/09/16 02:56:33;;;;;;;14.30;8.60;;;;;;;;;;5033078;28;20036;-31
2023/09/16 02:58:58;;;;;;;15.03;8.37;;;;;;;;;;5033206;28;20350;-32
2023/09/16 03:01:23;;;;;;;16.00;8.70;;;;;;;;;;5033051;28;20319;-31
2023/09/16 03:03:48;;;;;;;13.70;8.00;;;;;;;;;;5032749;28;20298;-32
2023/09/16 03:06:13;;;;;;;13.50;8.27;;;;;;;;;;5033559;28;20257;-31
2023/09/16 03:08:39;;;;;;;20.00;8.10;;;;;;;;;;5031665;28;20611;-32
2023/09/16 03:11:05;;;;;;;12.23;7.80;;;;;;;;;;5032969;28;20060;-32
2023/09/16 03:13:30;;;;;;;12.77;7.80;;;;;;;;;;5032921;28;20030;-30
2023/09/16 03:16:11;;;;;;;12.23;7.90;;;;;;;;;;5033135;28;20425;-31
2023/09/16 03:18:36;;;;;;;12.20;7.88;;;;;;;;;;5032800;28;20029;-31
2023/09/16 03:21:01;;;;;;;12.60;7.80;;;;;;;;;;5033306;28;20021;-30
2023/09/16 03:23:27;;;;;;;12.67;7.90;;;;;;;;;;5034347;28;20688;-31
2023/09/16 03:25:52;;;;;;;13.45;8.45;;;;;;;;;;5036403;28;20264;-31
2023/09/16 03:28:18;;;;;;;11.73;7.73;;;;;;;;;;5036973;28;20369;-30
2023/09/16 03:30:43;;;;;;;13.90;8.25;;;;;;;;;;5036563;28;20259;-31
2023/09/16 03:33:09;;;;;;;12.83;7.73;;;;;;;;;;5036364;28;20472;-31
2023/09/16 03:35:34;;;;;;;17.98;7.78;;;;;;;;;;5036158;28;20264;-30
2023/09/16 03:37:59;;;;;;;12.57;7.68;;;;;;;;;;5036716;28;20107;-31
2023/09/16 03:40:25;;;;;;;11.57;7.90;;;;;;;;;;5036136;28;20379;-30
2023/09/16 03:42:50;;;;;;;13.17;7.40;;;;;;;;;;5036091;28;20350;-31
2023/09/16 03:45:15;;;;;;;14.47;7.57;;;;;;;;;;5036560;28;20264;-31
2023/09/16 03:47:40;;;;;;;14.02;8.07;;;;;;;;;;5035994;28;20330;-31
2023/09/16 03:50:06;;;;;;;13.67;8.13;;;;;;;;;;5036537;28;20014;-31
2023/09/16 03:52:31;;;;;;;15.88;8.00;;;;;;;;;;5036441;28;20021;-31
2023/09/16 03:54:56;;;;;;;15.27;7.90;;;;;;;;;;5035916;28;20072;-30
2023/09/16 03:57:21;;;;;;;16.45;8.10;;;;;;;;;;5035912;28;20241;-30
2023/09/16 03:59:46;;;;;;;17.63;7.90;;;;;;;;;;5035866;28;20353;-30
2023/09/16 04:02:12;;;;;;;12.32;8.25;;;;;;;;;;5035944;28;20104;-31
2023/09/16 04:04:37;;;;;;;18.55;8.02;;;;;;;;;;5035614;28;20049;-31
2023/09/16 04:07:02;;;;;;;14.97;8.10;;;;;;;;;;5035967;28;20024;-30
2023/09/16 04:09:27;;;;;;;15.23;8.07;;;;;;;;;;5035938;28;20260;-31
2023/09/16 04:11:53;;;;;;;13.53;8.27;;;;;;;;;;5035619;28;20468;-31
2023/09/16 04:14:20;;;;;;;13.70;8.80;;;;;;;;;;5036214;28;20342;-31
2023/09/16 04:16:47;;;;;;;14.77;8.32;;;;;;;;;;5035786;28;20287;-31
2023/09/16 04:19:12;;;;;;;16.05;8.38;;;;;;;;;;5035393;28;20024;-32
2023/09/16 04:21:37;;;;;;;14.23;8.45;;;;;;;;;;5034150;28;20017;-31
2023/09/16 04:24:03;;;;;;;14.40;8.33;;;;;;;;;;5035396;28;20018;-30
2023/09/16 04:26:28;;;;;;;16.38;8.57;;;;;;;;;;5035332;28;20248;-32
2023/09/16 04:28:53;;;;;;;13.20;8.25;;;;;;;;;;5035557;28;20100;-31
2023/09/16 04:31:19;;;;;;;15.47;8.87;;;;;;;;;;5035305;28;20383;-32
2023/09/16 04:33:44;;;;;;;14.18;8.63;;;;;;;;;;5035434;28;20268;-31
2023/09/16 04:36:09;;;;;;;12.32;8.02;;;;;;;;;;5034745;28;20409;-32
2023/09/16 04:38:34;;;;;;;16.80;8.50;;;;;;;;;;5035104;28;20029;-32
2023/09/16 04:41:00;;;;;;;13.10;8.07;;;;;;;;;;5035033;28;20828;-32
2023/09/16 04:43:25;;;;;;;14.80;8.70;;;;;;;;;;5035292;28;20013;-32
2023/09/16 04:45:50;;;;;;;12.38;8.57;;;;;;;;;;5034954;28;20380;-32
2023/09/16 04:48:16;;;;;;;12.17;8.27;;;;;;;;;;5034964;28;20021;-32
2023/09/16 04:50:45;;;;;;;14.55;8.10;;;;;;;;;;5034919;28;20267;-32
2023/09/16 04:53:11;;;;;;;10.93;8.20;;;;;;;;;;5035127;28;20499;-32
2023/09/16 04:55:36;;;;;;;16.33;8.68;;;;;;;;;;5035045;28;20021;-32
2023/09/16 04:58:02;;;;;;;14.05;8.50;;;;;;;;;;5034915;28;20357;-32
2023/09/16 05:00:33;;;;;;;13.30;8.30;;;;;;;;;;5034807;28;20495;-32
2023/09/16 05:02:58;;;;;;;15.48;8.43;;;;;;;;;;5034585;28;20155;-31
2023/09/16 05:05:23;;;;;;;14.32;8.40;;;;;;;;;;5034751;28;20025;-30
2023/09/16 05:07:48;;;;;;;12.47;8.33;;;;;;;;;;5034532;28;20032;-31
2023/09/16 05:10:14;;;;;;;13.60;8.30;;;;;;;;;;5034521;28;20013;-31
2023/09/16 05:12:39;;;;;;;14.00;8.60;;;;;;;;;;5034698;28;20060;-31
2023/09/16 05:15:05;;;;;;;12.82;8.88;;;;;;;;;;5034326;28;20376;-30
2023/09/16 05:17:30;;;;;;;11.55;7.93;;;;;;;;;;5034590;28;20017;-31
2023/09/16 05:19:55;;;;;;;13.95;8.27;;;;;;;;;;5034201;28;20354;-31
2023/09/16 05:22:20;;;;;;;12.43;8.80;;;;;;;;;;5034468;28;20035;-31
2023/09/16 05:24:45;;;;;;;11.50;8.27;;;;;;;;;;5034226;28;20754;-30
2023/09/16 05:27:11;;;;;;;11.67;8.50;;;;;;;;;;5034494;28;20057;-30
2023/09/16 05:29:36;;;;;;;11.07;8.03;;;;;;;;;;5034120;28;20041;-31
2023/09/16 05:32:01;;;;;;;13.02;8.57;;;;;;;;;;5034621;28;20267;-31
2023/09/16 05:34:26;;;;;;;14.67;9.00;;;;;;;;;;5032067;28;20017;-31
2023/09/16 05:36:51;;;;;;;14.70;8.90;;;;;;;;;;5034496;28;20260;-31
2023/09/16 05:39:17;;;;;;;14.63;8.33;;;;;;;;;;5033995;28;20013;-31
2023/09/16 05:41:43;;;;;;;16.77;9.20;;;;;;;;;;5034380;28;20280;-31
2023/09/16 05:44:08;;;;;;;18.35;9.20;;;;;;;;;;5034056;28;20068;-31
2023/09/16 05:46:33;;;;;;;14.73;8.83;;;;;;;;;;5033032;28;20041;-31
2023/09/16 05:49:06;;;;;;;16.90;9.30;;;;;;;;;;5033823;28;20256;-31
2023/09/16 05:51:31;;;;;;;;;;;;;;;;;;5033916;28;20037;-31
2023/09/16 05:53:56;;;;;;;13.05;9.18;;;;;;;;;;5033753;28;19905;-31
2023/09/16 05:56:22;;;;;;;15.80;10.00;;;;;;;;;;5034290;28;20055;-31
2023/09/16 05:58:47;;;;;;;13.18;9.05;;;;;;;;;;5034182;28;20029;-31
2023/09/16 06:01:12;;;;;;;17.47;9.43;;;;;;;;;;5034104;28;20025;-31
2023/09/16 06:03:37;;;;;;;17.50;9.13;;;;;;;;;;5033531;28;20042;-30
2023/09/16 06:06:03;;;;;;;14.90;9.80;;;;;;;;;;5033595;28;20024;-31
2023/09/16 06:08:28;;;;;;;15.15;9.55;;;;;;;;;;5033806;28;20018;-31
2023/09/16 06:10:53;;;;;;;14.73;9.57;;;;;;;;;;5033799;28;20025;-31
2023/09/16 06:13:18;;;;;;;14.32;9.75;;;;;;;;;;5033862;28;20097;-31
2023/09/16 06:15:43;;;;;;;16.27;9.43;;;;;;;;;;5033491;28;20024;-30
2023/09/16 06:18:09;;;;;;;15.65;9.55;;;;;;;;;;5033644;28;20072;-30
2023/09/16 06:20:34;;;;;;;17.85;10.68;;;;;;;;;;5032230;28;20020;-31
2023/09/16 06:23:02;;;;;;;19.60;10.57;;;;;;;;;;5033326;28;20458;-30
2023/09/16 06:25:28;;;;;;;13.55;9.75;;;;;;;;;;5031888;28;20275;-31
2023/09/16 06:27:53;;;;;;;17.90;10.15;;;;;;;;;;5033266;28;20029;-31
2023/09/16 06:30:18;;;;;;;16.57;10.07;;;;;;;;;;5033178;28;20088;-31
2023/09/16 06:32:44;;;;;;;14.67;9.87;;;;;;;;;;5033757;28;20009;-31
2023/09/16 06:35:09;;;;;;;16.03;9.73;;;;;;;;;;5033675;28;20264;-30
2023/09/16 06:37:34;;;;;;;16.20;10.10;;;;;;;;;;5033096;28;20249;-30
2023/09/16 06:39:59;;;;;;;14.60;10.05;;;;;;;;;;5033320;28;20057;-31
2023/09/16 06:42:24;;;;;;;17.30;9.97;;;;;;;;;;5033298;28;20025;-31
2023/09/16 06:44:54;;;;;;;16.77;9.77;;;;;;;;;;5033128;28;20280;-31
2023/09/16 06:47:24;;;;;;;18.67;10.52;;;;;;;;;;5033400;28;20325;-31
2023/09/16 06:49:49;;;;;;;23.88;10.45;;;;;;;;;;5031984;28;20452;-31
2023/09/16 06:52:14;;;;;;;14.50;9.93;;;;;;;;;;5033051;28;20021;-31
2023/09/16 06:54:39;;;;;;;16.37;10.17;;;;;;;;;;5033534;28;20072;-31
2023/09/16 06:57:05;;;;;;;16.87;9.77;;;;;;;;;;5032923;28;20029;-30
2023/09/16 06:59:30;;;;;;;14.63;9.60;;;;;;;;;;5036565;28;20017;-31
2023/09/16 07:01:57;;;;;;;15.17;9.63;;;;;;;;;;5037060;28;20112;-31
2023/09/16 07:04:24;;;;;;;15.65;10.02;;;;;;;;;;5036133;28;20399;-31
2023/09/16 07:06:49;;;;;;;18.95;10.60;;;;;;;;;;5036325;28;20088;-31
2023/09/16 07:09:14;;;;;;;15.97;10.37;;;;;;;;;;5036760;28;20017;-31
2023/09/16 07:11:40;;;;;;;20.63;9.67;;;;;;;;;;5037272;28;20021;-31
2023/09/16 07:14:05;;;;;;;15.10;9.27;;;;;;;;;;5036959;28;20282;-31
2023/09/16 07:16:35;;;;;;;13.93;8.07;;;;;;;;;;5037219;28;20120;-31
2023/09/16 07:19:00;;;;;;;12.18;7.00;;;;;;;;;;5036822;28;20079;-31
2023/09/16 07:21:25;;;;;;;11.70;6.97;;;;;;;;;;5036479;28;20465;-30
2023/09/16 07:23:51;;;;;;;10.93;7.07;;;;;;;;;;5037067;28;20028;-31
2023/09/16 07:26:16;;;;;;;10.03;6.70;;;;;;;;;;5036475;28;20423;-31
2023/09/16 07:28:41;;;;;;;9.00;6.53;;;;;;;;;;5036424;28;20033;-32
2023/09/16 07:31:06;;;;;;;11.93;6.57;;;;;;;;;;5036304;28;20036;-31
2023/09/16 07:33:31;;;;;;;9.23;6.60;;;;;;;;;;5036300;28;20022;-31
2023/09/16 07:35:56;;;;;;;11.10;6.60;;;;;;;;;;5035967;28;20486;-31
2023/09/16 07:38:22;;;;;;;11.60;6.50;;;;;;;;;;5035002;28;20026;-32
2023/09/16 07:40:50;;;;;;;10.98;6.57;;;;;;;;;;5036732;28;20031;-31
2023/09/16 07:43:17;;;;;;;7.25;6.18;;;;;;;;;;5034803;28;20072;-31
2023/09/16 07:45:42;;;;;;;9.63;6.50;;;;;;;;;;5033970;28;20016;-31
2023/09/16 07:48:09;;;;;;;9.03;6.60;;;;;;;;;;5034248;28;20465;-32
2023/09/16 07:50:34;;;;;;;8.60;6.40;;;;;;;;;;5034807;28;20025;-32
2023/09/16 07:52:59;;;;;;;8.73;6.37;;;;;;;;;;5034406;28;20092;-32
2023/09/16 07:55:25;;;;;;;8.07;6.30;;;;;;;;;;5034270;28;20009;-32
2023/09/16 07:57:50;;;;;;;10.20;6.30;;;;;;;;;;5035953;28;20025;-32
2023/09/16 08:00:15;;;;;;;13.30;6.47;;;;;;;;;;5035739;28;20021;-32
2023/09/16 08:02:40;;;;;;;8.93;6.50;;;;;;;;;;5035572;28;20495;-32
2023/09/16 08:05:06;;;;;;;9.13;6.17;;;;;;;;;;5036539;28;20025;-32
2023/09/16 08:07:31;;;;;;;9.15;6.20;;;;;;;;;;5036265;28;20021;-32
2023/09/16 08:09:56;;;;;;;10.07;6.40;;;;;;;;;;5034707;28;20017;-31
2023/09/16 08:12:23;;;;;;;8.73;6.40;;;;;;;;;;5036191;28;20021;-31
2023/09/16 08:14:48;;;;;;;9.20;6.00;;;;;;;;;;5035609;28;20116;-31
2023/09/16 08:17:13;;;;;;;10.60;6.38;;;;;;;;;;5036086;28;20057;-31
2023/09/16 08:19:39;;;;;;;9.77;7.00;;;;;;;;;;5033679;28;20017;-32
2023/09/16 08:22:04;;;;;;;8.20;6.57;;;;;;;;;;5033598;28;20048;-31
2023/09/16 08:24:30;;;;;;;8.80;6.60;;;;;;;;;;5034894;28;20648;-30
2023/09/16 08:26:55;;;;;;;8.48;6.15;;;;;;;;;;5034988;28;20026;-30
2023/09/16 08:29:20;;;;;;;11.40;6.70;;;;;;;;;;5034739;28;20100;-31
2023/09/16 08:31:46;;;;;;;9.27;6.57;;;;;;;;;;5034888;28;20264;-32
2023/09/16 08:34:11;;;;;;;8.98;6.18;;;;;;;;;;5033982;28;20036;-32
2023/09/16 08:36:36;;;;;;;8.87;6.30;;;;;;;;;;5035429;28;20464;-32
2023/09/16 08:39:01;;;;;;;9.10;6.20;;;;;;;;;;5035695;28;20067;-32
2023/09/16 08:41:41;;;;;;;8.27;6.17;;;;;;;;;;5035572;28;20026;-31
2023/09/16 08:44:08;;;;;;;11.38;6.10;;;;;;;;;;5034999;28;20025;-32
2023/09/16 08:46:39;;;;;;;7.75;6.20;;;;;;;;;;5035557;28;20441;-31
2023/09/16 08:49:06;;;;;;;7.70;5.90;;;;;;;;;;5034974;28;20025;-31
2023/09/16 08:51:32;;;;;;;10.10;6.32;;;;;;;;;;5034874;28;20025;-32
2023/09/16 08:53:58;;;;;;;10.18;5.82;;;;;;;;;;5035053;28;20071;-35
2023/09/16 08:56:23;;;;;;;8.57;6.00;;;;;;;;;;5035072;28;20024;-31
2023/09/16 08:58:49;;;;;;;10.23;6.57;;;;;;;;;;5035272;28;20116;-31
2023/09/16 09:01:16;;;;;;;11.87;6.03;;;;;;;;;;5034817;28;20033;-31
2023/09/16 09:03:41;;;;;;;11.52;6.50;;;;;;;;;;5034521;28;20616;-31
2023/09/16 09:06:07;;;;;;;8.60;6.23;;;;;;;;;;5034571;28;20085;-31
2023/09/16 09:08:33;;;;;;;12.35;6.82;;;;;;;;;;5034728;28;20045;-31
2023/09/16 09:10:58;;;;;;;8.82;6.63;;;;;;;;;;5034464;28;20464;-31
2023/09/16 09:13:24;;;;;;;10.25;6.43;;;;;;;;;;5034411;28;20068;-31
2023/09/16 09:15:49;;;;;;;11.80;5.78;;;;;;;;;;5034449;28;20025;-31
2023/09/16 09:18:16;;;;;;;13.60;6.68;;;;;;;;;;5034487;28;20383;-31
2023/09/16 09:20:42;;;;;;;10.15;6.68;;;;;;;;;;5033945;28;20032;-31
2023/09/16 09:23:07;;;;;;;18.07;6.60;;;;;;;;;;5034339;28;20022;-31
2023/09/16 09:25:32;;;;;;;9.30;6.27;;;;;;;;;;5034468;28;20029;-31
2023/09/16 09:27:58;;;;;;;13.00;6.03;;;;;;;;;;5034313;28;20042;-32
2023/09/16 09:30:26;;;;;;;10.40;6.50;;;;;;;;;;5034587;28;20432;-32
2023/09/16 09:32:52;;;;;;;15.23;5.30;;;;;;;;;;5034507;28;20025;-32
2023/09/16 09:35:20;;;;;;;8.95;6.28;;;;;;;;;;5034110;28;20014;-32
2023/09/16 09:37:47;;;;;;;9.48;5.53;;;;;;;;;;5034996;28;20104;-32
2023/09/16 09:40:12;;;;;;;11.02;6.80;;;;;;;;;;5034470;28;20129;-32
2023/09/16 09:42:41;;;;;;;7.88;6.20;;;;;;;;;;5034158;28;20017;-32
2023/09/16 09:45:07;;;;;;;10.13;5.60;;;;;;;;;;5034186;28;20021;-32
2023/09/16 09:47:34;;;;;;;12.40;6.28;;;;;;;;;;5033958;28;20116;-31
2023/09/16 09:49:59;;;;;;;13.52;6.05;;;;;;;;;;5034180;28;20036;-32
2023/09/16 09:52:25;;;;;;;8.30;6.13;;;;;;;;;;5033946;28;20464;-32
2023/09/16 09:54:50;;;;;;;9.70;5.90;;;;;;;;;;5032901;28;20021;-32
2023/09/16 09:57:16;;;;;;;10.77;6.00;;;;;;;;;;5033693;28;20449;-32
2023/09/16 09:59:41;;;;;;;10.80;6.00;;;;;;;;;;5034471;28;20033;-33
2023/09/16 10:02:06;;;;;;;8.77;6.00;;;;;;;;;;5033548;28;20100;-31
2023/09/16 10:04:32;;;;;;;10.50;5.95;;;;;;;;;;5033416;28;20052;-31
2023/09/16 10:07:00;;;;;;;20.38;5.18;;;;;;;;;;5033805;28;20033;-31
2023/09/16 10:09:25;;;;;;;10.77;5.60;;;;;;;;;;5033482;28;20140;-32
2023/09/16 10:11:50;;;;;;;12.23;6.40;;;;;;;;;;5032421;28;20057;-32
2023/09/16 10:14:16;;;;;;;6.93;4.70;;;;;;;;;;5031353;28;20267;-32
2023/09/16 10:16:41;;;;;;;13.10;5.03;;;;;;;;;;5031444;28;20026;-32
2023/09/16 10:19:06;;;;;;;7.85;5.32;;;;;;;;;;5032000;28;20027;-31
2023/09/16 10:21:32;;;;;;;7.95;4.72;;;;;;;;;;5030055;28;20463;-32
2023/09/16 10:23:57;;;;;;;8.75;5.25;;;;;;;;;;5031584;28;20409;-32
2023/09/16 10:26:22;;;;;;;11.13;4.93;;;;;;;;;;5031995;28;20018;-32
2023/09/16 10:28:49;;;;;;;8.33;5.50;;;;;;;;;;5033075;28;20383;-32
2023/09/16 10:31:16;;;;;;;10.52;5.38;;;;;;;;;;5033173;28;20296;-31
2023/09/16 10:33:41;;;;;;;11.55;5.32;;;;;;;;;;5035006;28;20496;-32
2023/09/16 10:36:07;;;;;;;9.63;5.40;;;;;;;;;;5036883;28;20024;-31
2023/09/16 10:38:34;;;;;;;8.25;4.78;;;;;;;;;;5037156;28;20092;-31
2023/09/16 10:40:59;;;;;;;10.07;5.07;;;;;;;;;;5036986;28;20014;-31
2023/09/16 10:43:25;;;;;;;8.80;4.40;;;;;;;;;;5037421;28;20391;-31
2023/09/16 10:45:51;;;;;;;9.63;4.75;;;;;;;;;;5037681;28;20371;-31
2023/09/16 10:48:16;;;;;;;12.75;5.80;;;;;;;;;;5036283;28;20060;-32
2023/09/16 10:50:43;;;;;;;7.03;4.80;;;;;;;;;;5034927;28;20035;-31
2023/09/16 10:53:12;;;;;;;11.68;4.65;;;;;;;;;;5035208;28;20021;-32
2023/09/16 10:55:46;;;;;;;9.15;4.80;;;;;;;;;;5035417;28;20033;-32
2023/09/16 10:58:26;;;;;;;9.75;4.90;;;;;;;;;;5035317;28;20025;-32
2023/09/16 11:00:54;;;;;;;9.23;5.03;;;;;;;;;;5034836;28;20103;-32
2023/09/16 11:03:21;;;;;;;10.98;5.35;;;;;;;;;;5035723;28;20072;-33
2023/09/16 11:05:46;;;;;;;8.68;5.90;;;;;;;;;;5035187;28;20021;-33
2023/09/16 11:08:12;;;;;;;8.43;4.55;;;;;;;;;;5036430;28;20036;-33
2023/09/16 11:10:38;;;;;;;8.73;4.88;;;;;;;;;;5036660;28;20022;-33
2023/09/16 11:13:03;;;;;;;8.43;4.47;;;;;;;;;;5037044;28;20021;-33
2023/09/16 11:15:35;;;;;;;9.40;4.57;;;;;;;;;;5036922;28;20080;-32
2023/09/16 11:18:01;;;;;;;8.80;4.07;;;;;;;;;;5037174;28;20021;-32
2023/09/16 11:20:31;;;;;;;9.13;4.03;;;;;;;;;;5038209;28;20294;-31
2023/09/16 11:22:56;;;;;;;5.55;3.80;;;;;;;;;;5037036;28;20024;-32
2023/09/16 11:25:21;;;;;;;7.83;3.53;;;;;;;;;;5036725;28;20096;-31
2023/09/16 11:27:46;;;;;;;6.40;3.33;;;;;;;;;;5037405;28;20071;-31
2023/09/16 11:30:15;;;;;;;5.43;3.63;;;;;;;;;;5036762;28;20013;-31
2023/09/16 11:32:41;;;;;;;7.35;4.10;;;;;;;;;;5037093;28;20104;-31
2023/09/16 11:35:07;;;;;;;6.25;4.18;;;;;;;;;;5036932;28;20123;-31
2023/09/16 11:37:33;;;;;;;6.72;3.58;;;;;;;;;;5036342;28;20018;-31
2023/09/16 11:40:00;;;;;;;6.95;4.05;;;;;;;;;;5036727;28;20100;-31
2023/09/16 11:42:25;;;;;;;7.00;4.07;;;;;;;;;;5036550;28;20045;-31
2023/09/16 11:44:50;;;;;;;7.25;4.38;;;;;;;;;;5036454;28;20018;-32
2023/09/16 11:47:16;;;;;;;9.40;4.30;;;;;;;;;;5036517;28;20076;-31
2023/09/16 11:49:41;;;;;;;9.68;4.05;;;;;;;;;;5036245;28;20022;-32
2023/09/16 11:52:07;;;;;;;7.47;4.20;;;;;;;;;;5036080;28;20020;-31
2023/09/16 11:54:32;;;;;;;10.93;4.40;;;;;;;;;;5036964;28;20300;-31
2023/09/16 11:56:57;;;;;;;7.22;4.10;;;;;;;;;;5037972;28;20045;-31
2023/09/16 11:59:23;;;;;;;7.35;3.97;;;;;;;;;;5036094;28;20464;-30
2023/09/16 12:01:49;;;;;;;9.75;3.90;;;;;;;;;;5035798;28;20030;-31
2023/09/16 12:04:15;;;;;;;8.18;3.53;;;;;;;;;;5035766;28;20042;-31
2023/09/16 12:06:41;;;;;;;6.50;3.67;;;;;;;;;;5036062;28;20024;-31
2023/09/16 12:09:08;;;;;;;5.15;3.15;;;;;;;;;;5036287;28;20368;-31
2023/09/16 12:11:33;;;;;;;4.85;3.05;;;;;;;;;;5035701;28;20025;-31
2023/09/16 12:14:00;;;;;;;5.68;2.97;;;;;;;;;;5034678;28;20021;-32
2023/09/16 12:16:25;;;;;;;11.40;3.03;;;;;;;;;;5035730;28;20514;-32
2023/09/16 12:18:50;;;;;;;7.78;3.85;;;;;;;;;;5035689;28;20017;-32
2023/09/16 12:21:16;;;;;;;8.90;3.20;;;;;;;;;;5035756;28;20022;-32
2023/09/16 12:23:42;;;;;;;4.65;3.25;;;;;;;;;;5034243;28;20324;-32
2023/09/16 12:26:10;;;;;;;4.72;3.00;;;;;;;;;;5035328;28;20013;-32
2023/09/16 12:28:40;;;;;;;6.70;3.00;;;;;;;;;;5035617;28;20388;-32
2023/09/16 12:31:10;;;;;;;5.88;2.95;;;;;;;;;;5018150;28;20021;-32
2023/09/16 12:33:37;;;;;;;8.18;3.00;;;;;;;;;;5034035;28;20029;-32
2023/09/16 12:36:03;;;;;;;6.05;3.05;;;;;;;;;;5035499;28;20025;-32
2023/09/16 12:38:29;;;;;;;6.40;3.20;;;;;;;;;;5035241;28;20031;-32
2023/09/16 12:40:54;;;;;;;4.38;2.90;;;;;;;;;;5017501;28;20025;-32
2023/09/16 12:43:20;;;;;;;5.35;2.90;;;;;;;;;;5033947;28;20053;-32
2023/09/16 12:45:45;;;;;;;8.73;2.97;;;;;;;;;;5035112;28;20029;-32
2023/09/16 12:48:11;;;;;;;4.80;2.92;;;;;;;;;;5035704;28;20028;-32
2023/09/16 12:50:36;;;;;;;7.10;3.05;;;;;;;;;;5036064;28;20040;-32
2023/09/16 12:53:01;;;;;;;5.93;3.20;;;;;;;;;;5035371;28;20377;-32
2023/09/16 12:55:27;;;;;;;5.47;2.75;;;;;;;;;;5035790;28;20368;-33
2023/09/16 12:57:53;;;;;;;5.47;2.60;;;;;;;;;;5033445;28;20421;-32
2023/09/16 13:00:22;;;;;;;5.55;2.83;;;;;;;;;;5033599;28;20025;-32
2023/09/16 13:02:47;;;;;;;4.80;2.50;;;;;;;;;;5033285;28;20475;-31
2023/09/16 13:05:20;;;;;;;4.97;2.60;;;;;;;;;;5034788;28;20530;-32
2023/09/16 13:07:50;;;;;;;5.82;2.60;;;;;;;;;;5034659;28;20020;-32
2023/09/16 13:10:17;;;;;;;7.38;2.50;;;;;;;;;;5033419;28;20025;-31
2023/09/16 13:12:43;;;;;;;6.93;2.50;;;;;;;;;;5034597;28;20013;-32
2023/09/16 13:15:13;;;;;;;4.90;2.40;;;;;;;;;;5034798;28;20109;-32
2023/09/16 13:17:39;;;;;;;8.23;3.72;;;;;;;;;;5034745;28;20017;-31
2023/09/16 13:20:11;;;;;;;5.45;2.60;;;;;;;;;;5034461;28;20063;-31
2023/09/16 13:22:36;;;;;;;10.97;2.30;;;;;;;;;;5034686;28;20026;-32
2023/09/16 13:25:01;;;;;;;3.77;2.20;;;;;;;;;;5034945;28;20764;-31
2023/09/16 13:27:27;;;;;;;4.60;2.40;;;;;;;;;;5034650;28;20786;-31
2023/09/16 13:29:59;;;;;;;5.80;2.50;;;;;;;;;;5035111;28;20607;-31
2023/09/16 13:32:24;;;;;;;6.55;2.58;;;;;;;;;;5034695;28;20017;-31
2023/09/16 13:34:51;;;;;;;8.30;2.47;;;;;;;;;;5034400;28;20388;-31
2023/09/16 13:37:16;;;;;;;4.28;2.20;;;;;;;;;;5035020;28;20372;-32
2023/09/16 13:39:42;;;;;;;5.00;2.33;;;;;;;;;;5034159;28;20037;-31
2023/09/16 13:42:07;;;;;;;3.72;2.22;;;;;;;;;;5034235;28;20284;-31
2023/09/16 13:44:32;;;;;;;5.38;2.50;;;;;;;;;;5034233;28;20071;-31
2023/09/16 13:46:57;;;;;;;3.13;2.07;;;;;;;;;;5034188;28;20017;-31
2023/09/16 13:49:23;;;;;;;6.10;2.37;;;;;;;;;;5034001;28;20252;-32
2023/09/16 13:51:50;;;;;;;3.57;2.40;;;;;;;;;;5033894;28;20075;-32
2023/09/16 13:54:15;;;;;;;4.55;2.63;;;;;;;;;;5034008;28;20271;-31
2023/09/16 13:56:40;;;;;;;4.07;2.30;;;;;;;;;;5034098;28;20029;-32
2023/09/16 13:59:05;;;;;;;5.93;2.40;;;;;;;;;;5034292;28;20092;-31
2023/09/16 14:01:31;;;;;;;5.70;2.57;;;;;;;;;;5033998;28;20021;-31
2023/09/16 14:03:57;;;;;;;4.63;2.17;;;;;;;;;;5033854;28;20072;-32
2023/09/16 14:06:22;;;;;;;4.90;2.50;;;;;;;;;;5034024;28;20017;-31
2023/09/16 14:08:47;;;;;;;4.97;2.40;;;;;;;;;;5032448;28;20025;-31
2023/09/16 14:11:12;;;;;;;9.50;2.23;;;;;;;;;;5031909;28;20292;-32
2023/09/16 14:13:38;;;;;;;4.23;2.30;;;;;;;;;;5033348;28;20735;-32
2023/09/16 14:16:03;;;;;;;4.10;2.53;;;;;;;;;;5035151;28;20017;-33
2023/09/16 14:18:28;;;;;;;5.78;2.45;;;;;;;;;;5033805;28;20060;-32
2023/09/16 14:20:54;;;;;;;5.67;2.30;;;;;;;;;;5033795;28;20028;-33
2023/09/16 14:23:19;;;;;;;5.70;2.53;;;;;;;;;;5033403;28;20287;-32
2023/09/16 14:25:44;;;;;;;5.75;2.35;;;;;;;;;;5032395;28;20021;-32